Catskill, NY (12414)

11:48 AM EDT on September 04, 2015 (GMT -0400)
Catskill, NY.Route 23A | | Change Station
CLOSE
Current Station
Personal Weather Station
Location: Catskill, NY
Elevation: 312 ft
Nearby Weather Stations

Elev 312 ft 42.20 °N, 73.95 °W | Updated 1 minute ago

Overcast
Overcast
77.4 °F
Feels Like 79 °F
N
1.7
Wind Variable Wind from SSE

Today
High -- | Low -- °F
--% Chance of Precip.
Yesterday
High -- | Low -- °F
Precip. -- in
6:23 AM 7:24 PM
Waning Gibbous, 58% visible
Pressure 30.09 in
Visibility 10.0 miles
Clouds Scattered Clouds 2500 ft
Heat Index 79 °F
Dew Point 66 °F
Humidity 68%
Rainfall 0.00 in
Snow Depth Not available.
UV 1.1 out of 12
Pollen 8.80 out of 12
Air Quality Not available.
Flu Activity Not available.
METAR KPSF 041454Z AUTO 05011G15KT 10SM SCT025 22/14 A3016 RMK AO2 SLP188 T02220139 51014
Pressure 30.09 in
Visibility 10.0 miles
Clouds Scattered Clouds 2500 ft
Heat Index 79 °F
Dew Point 66 °F
Humidity 68%
Rainfall 0.00 in
Snow Depth Not available.
UV 1.1 out of 12
Pollen 8.80 out of 12
Air Quality Not available.
Flu Activity Not available.
METAR KPSF 041454Z AUTO 05011G15KT 10SM SCT025 22/14 A3016 RMK AO2 SLP188 T02220139 51014

10-Day Weather Forecast

×

Almanac

Astronomy

Sep. 04, 2015 Rise Set
Actual Time
Civil Twilight
Nautical Twilight
Astronomical Twilight
Moon
Length of Visible Light
Length of Day
Tomorrow will be .
, % of the Moon is Illuminated

Today's Extremes

State Highs State Lows

Community

WunderPhotos

Upload Photos

1,852,197 photos uploaded!

WunderBlogs® & News

Nearby

Air Quality

  Air Quality AQ Index Pollutant
Not available.

Snow Depth

Station Depth Elevation

Earthquake Activity

City Distance Mag. Time & Date
Minimum magnitude displayed is 2.5.

Coastal Water Temperatures

Place Temperature

Stations

Nearby Weather Stations

Station Location Temp. Windchill Dew Point Humidity Wind Precip. Elev Updated Type